SNJ122 ROAH-RJGG
Flight info
| Callsign | SNJ122 |
|---|---|
| Flight time | 1h 48m |
| Altitude | 35000 |
| Route | AMAMI Y574 SHIBK Y57 YULIA Y575 ALBAT Y755 CARDS |
| Aircraft | B738/M-SDE2E3FGHIRWXY/LB1 |
Departure
| Time | 2026-04-26 04:37 |
|---|---|
| Airport | Naha International Airport (ROAH) |
Arrival
| Time | 2026-04-26 06:26 |
|---|---|
| Airport | Chubu Centrair International Airport (RJGG) |
| Time | Latitude | Longitude | Altitude | Speed | Heading |
|---|---|---|---|---|---|
| 2026-04-26 03:53 | 26.21336 | 127.64943 | 20 ft | 0 kts | 87° |
| 2026-04-26 04:22 | 26.21335 | 127.64919 | 20 ft | 4 kts | 87° |
| 2026-04-26 04:22 | 26.21334 | 127.64889 | 20 ft | 4 kts | 87° |
| 2026-04-26 04:22 | 26.21332 | 127.64859 | 20 ft | 4 kts | 87° |
| 2026-04-26 04:23 | 26.21331 | 127.64829 | 20 ft | 4 kts | 87° |
| 2026-04-26 04:23 | 26.21330 | 127.64800 | 20 ft | 3 kts | 87° |
| 2026-04-26 04:23 | 26.21331 | 127.64775 | 20 ft | 4 kts | 114° |
| 2026-04-26 04:23 | 26.21347 | 127.64753 | 22 ft | 4 kts | 149° |
| 2026-04-26 04:24 | 26.21371 | 127.64741 | 21 ft | 4 kts | 172° |
| 2026-04-26 04:24 | 26.21396 | 127.64741 | 21 ft | 2 kts | 183° |
| 2026-04-26 04:24 | 26.21398 | 127.64741 | 21 ft | 0 kts | 183° |
| 2026-04-26 04:26 | 26.21389 | 127.64740 | 21 ft | 3 kts | 183° |
| 2026-04-26 04:26 | 26.21361 | 127.64739 | 21 ft | 5 kts | 183° |
| 2026-04-26 04:27 | 26.21311 | 127.64739 | 19 ft | 9 kts | 178° |
| 2026-04-26 04:27 | 26.21235 | 127.64742 | 19 ft | 13 kts | 178° |
| 2026-04-26 04:27 | 26.21131 | 127.64748 | 17 ft | 16 kts | 176° |
| 2026-04-26 04:27 | 26.21011 | 127.64744 | 17 ft | 18 kts | 197° |
| 2026-04-26 04:28 | 26.20891 | 127.64730 | 16 ft | 17 kts | 175° |
| 2026-04-26 04:28 | 26.20775 | 127.64739 | 16 ft | 17 kts | 179° |
| 2026-04-26 04:28 | 26.20662 | 127.64741 | 16 ft | 16 kts | 179° |
| 2026-04-26 04:28 | 26.20553 | 127.64747 | 16 ft | 15 kts | 176° |
| 2026-04-26 04:29 | 26.20449 | 127.64755 | 17 ft | 15 kts | 176° |
| 2026-04-26 04:29 | 26.20350 | 127.64759 | 16 ft | 14 kts | 180° |
| 2026-04-26 04:29 | 26.20254 | 127.64763 | 16 ft | 13 kts | 177° |
| 2026-04-26 04:29 | 26.20162 | 127.64767 | 16 ft | 14 kts | 177° |
| 2026-04-26 04:30 | 26.20064 | 127.64772 | 16 ft | 14 kts | 178° |
| 2026-04-26 04:30 | 26.19965 | 127.64777 | 17 ft | 14 kts | 178° |
| 2026-04-26 04:30 | 26.19871 | 127.64781 | 16 ft | 13 kts | 177° |
| 2026-04-26 04:30 | 26.19811 | 127.64784 | 16 ft | 13 kts | 177° |
| 2026-04-26 04:31 | 26.19722 | 127.64789 | 16 ft | 13 kts | 177° |
| 2026-04-26 04:31 | 26.19607 | 127.64796 | 16 ft | 12 kts | 177° |
| 2026-04-26 04:31 | 26.19552 | 127.64799 | 16 ft | 12 kts | 177° |
| 2026-04-26 04:31 | 26.19442 | 127.64804 | 16 ft | 12 kts | 177° |
| 2026-04-26 04:32 | 26.19364 | 127.64808 | 16 ft | 11 kts | 178° |
| 2026-04-26 04:32 | 26.19287 | 127.64811 | 16 ft | 11 kts | 179° |
| 2026-04-26 04:32 | 26.19212 | 127.64812 | 16 ft | 11 kts | 179° |
| 2026-04-26 04:32 | 26.19162 | 127.64813 | 16 ft | 10 kts | 178° |
| 2026-04-26 04:33 | 26.19067 | 127.64818 | 16 ft | 10 kts | 177° |
| 2026-04-26 04:33 | 26.19020 | 127.64821 | 16 ft | 10 kts | 177° |
| 2026-04-26 04:33 | 26.18952 | 127.64824 | 16 ft | 10 kts | 177° |
| 2026-04-26 04:33 | 26.18885 | 127.64828 | 16 ft | 10 kts | 178° |
| 2026-04-26 04:34 | 26.18820 | 127.64831 | 17 ft | 9 kts | 178° |
| 2026-04-26 04:34 | 26.18748 | 127.64834 | 16 ft | 13 kts | 178° |
| 2026-04-26 04:34 | 26.18646 | 127.64839 | 17 ft | 15 kts | 178° |
| 2026-04-26 04:34 | 26.18545 | 127.64843 | 15 ft | 14 kts | 178° |
| 2026-04-26 04:35 | 26.18448 | 127.64847 | 16 ft | 14 kts | 178° |
| 2026-04-26 04:35 | 26.18354 | 127.64853 | 16 ft | 13 kts | 176° |
| 2026-04-26 04:35 | 26.18266 | 127.64841 | 16 ft | 13 kts | 216° |
| 2026-04-26 04:35 | 26.18242 | 127.64755 | 15 ft | 11 kts | 266° |
| 2026-04-26 04:36 | 26.18237 | 127.64674 | 14 ft | 9 kts | 268° |
| 2026-04-26 04:36 | 26.18273 | 127.64648 | 15 ft | 0 kts | 359° |
| 2026-04-26 04:36 | 26.18300 | 127.64647 | 15 ft | 21 kts | 359° |
| 2026-04-26 04:36 | 26.18696 | 127.64629 | 17 ft | 91 kts | 358° |
| 2026-04-26 04:37 | 26.19542 | 127.64589 | 20 ft | 150 kts | 357° |
| 2026-04-26 04:37 | 26.20653 | 127.64546 | 553 ft | 163 kts | 355° |
| 2026-04-26 04:37 | 26.21791 | 127.64466 | 1471 ft | 162 kts | 357° |
| 2026-04-26 04:37 | 26.23022 | 127.64436 | 1959 ft | 194 kts | 358° |
| 2026-04-26 04:38 | 26.24460 | 127.64380 | 2327 ft | 218 kts | 356° |
| 2026-04-26 04:38 | 26.25985 | 127.64080 | 2855 ft | 228 kts | 332° |
| 2026-04-26 04:38 | 26.27376 | 127.63175 | 3476 ft | 239 kts | 328° |
| 2026-04-26 04:38 | 26.28883 | 127.62205 | 4154 ft | 255 kts | 329° |
| 2026-04-26 04:39 | 26.30444 | 127.61220 | 4703 ft | 258 kts | 328° |
| 2026-04-26 04:39 | 26.31994 | 127.60245 | 4994 ft | 255 kts | 327° |
| 2026-04-26 04:39 | 26.33526 | 127.59277 | 5182 ft | 253 kts | 327° |
| 2026-04-26 04:39 | 26.35073 | 127.58296 | 5737 ft | 260 kts | 326° |
| 2026-04-26 04:40 | 26.36665 | 127.57290 | 6540 ft | 265 kts | 325° |
| 2026-04-26 04:40 | 26.38278 | 127.56261 | 7290 ft | 269 kts | 324° |
| 2026-04-26 04:40 | 26.39881 | 127.55169 | 8021 ft | 270 kts | 315° |
| 2026-04-26 04:40 | 26.40980 | 127.53530 | 8721 ft | 264 kts | 288° |
| 2026-04-26 04:41 | 26.41300 | 127.51537 | 9457 ft | 262 kts | 265° |
| 2026-04-26 04:41 | 26.40905 | 127.49561 | 10157 ft | 264 kts | 246° |
| 2026-04-26 04:41 | 26.39895 | 127.47785 | 10466 ft | 284 kts | 232° |
| 2026-04-26 04:41 | 26.38547 | 127.46062 | 10676 ft | 305 kts | 230° |
| 2026-04-26 04:42 | 26.37119 | 127.44294 | 11129 ft | 315 kts | 230° |
| 2026-04-26 04:42 | 26.35585 | 127.42523 | 11777 ft | 321 kts | 220° |
| 2026-04-26 04:42 | 26.33595 | 127.41361 | 12492 ft | 329 kts | 201° |
| 2026-04-26 04:42 | 26.31317 | 127.40921 | 13222 ft | 338 kts | 186° |
| 2026-04-26 04:43 | 26.28950 | 127.41210 | 13890 ft | 350 kts | 170° |
| 2026-04-26 04:43 | 26.26684 | 127.42333 | 14482 ft | 366 kts | 152° |
| 2026-04-26 04:43 | 26.24811 | 127.44326 | 15081 ft | 383 kts | 131° |
| 2026-04-26 04:43 | 26.23546 | 127.46982 | 15679 ft | 396 kts | 114° |
| 2026-04-26 04:44 | 26.22877 | 127.49993 | 16217 ft | 405 kts | 104° |
| 2026-04-26 04:44 | 26.22450 | 127.53125 | 16779 ft | 412 kts | 102° |
| 2026-04-26 04:44 | 26.22097 | 127.56308 | 17295 ft | 417 kts | 101° |
| 2026-04-26 04:44 | 26.21742 | 127.59525 | 17825 ft | 421 kts | 102° |
| 2026-04-26 04:45 | 26.21361 | 127.62769 | 18339 ft | 424 kts | 102° |
| 2026-04-26 04:45 | 26.20950 | 127.66037 | 18816 ft | 427 kts | 103° |
| 2026-04-26 04:45 | 26.20521 | 127.69312 | 19337 ft | 429 kts | 104° |
| 2026-04-26 04:45 | 26.20079 | 127.72603 | 19892 ft | 430 kts | 104° |
| 2026-04-26 04:46 | 26.19632 | 127.75899 | 20453 ft | 431 kts | 104° |
| 2026-04-26 04:46 | 26.19182 | 127.79210 | 20923 ft | 434 kts | 104° |
| 2026-04-26 04:46 | 26.18729 | 127.82546 | 21350 ft | 438 kts | 104° |
| 2026-04-26 04:46 | 26.18272 | 127.85909 | 21788 ft | 441 kts | 104° |
| 2026-04-26 04:47 | 26.17838 | 127.89301 | 22237 ft | 446 kts | 100° |
| 2026-04-26 04:47 | 26.18073 | 127.92790 | 22617 ft | 462 kts | 78° |
| 2026-04-26 04:47 | 26.19356 | 127.96095 | 23031 ft | 471 kts | 58° |
| 2026-04-26 04:47 | 26.21469 | 127.98874 | 23471 ft | 472 kts | 38° |
| 2026-04-26 04:48 | 26.26988 | 128.02785 | 24081 ft | 477 kts | 28° |
| 2026-04-26 04:48 | 26.29874 | 128.04650 | 24379 ft | 481 kts | 28° |
| 2026-04-26 04:48 | 26.32773 | 128.06536 | 24708 ft | 484 kts | 28° |
| 2026-04-26 04:49 | 26.35680 | 128.08455 | 25031 ft | 487 kts | 29° |
| 2026-04-26 04:49 | 26.38594 | 128.10406 | 25342 ft | 490 kts | 30° |
| 2026-04-26 04:49 | 26.41520 | 128.12383 | 25642 ft | 493 kts | 30° |
| 2026-04-26 04:49 | 26.44458 | 128.14378 | 25940 ft | 496 kts | 30° |
| 2026-04-26 04:50 | 26.47415 | 128.16390 | 26253 ft | 499 kts | 30° |
| 2026-04-26 04:50 | 26.50399 | 128.18419 | 26445 ft | 505 kts | 30° |
| 2026-04-26 04:50 | 26.53412 | 128.20468 | 26676 ft | 508 kts | 30° |
| 2026-04-26 04:50 | 26.56438 | 128.22527 | 26983 ft | 511 kts | 30° |
| 2026-04-26 04:51 | 26.59479 | 128.24596 | 27277 ft | 513 kts | 30° |
| 2026-04-26 04:51 | 26.62534 | 128.26675 | 27548 ft | 516 kts | 30° |
| 2026-04-26 04:51 | 26.65599 | 128.28773 | 27795 ft | 519 kts | 32° |
| 2026-04-26 04:51 | 26.68507 | 128.31177 | 28063 ft | 522 kts | 41° |
| 2026-04-26 04:52 | 26.71095 | 128.34026 | 28343 ft | 523 kts | 52° |
| 2026-04-26 04:52 | 26.73365 | 128.37201 | 28619 ft | 523 kts | 54° |
| 2026-04-26 04:52 | 26.75591 | 128.40439 | 28851 ft | 526 kts | 55° |
| 2026-04-26 04:52 | 26.77829 | 128.43696 | 29067 ft | 529 kts | 54° |
| 2026-04-26 04:53 | 26.80096 | 128.46956 | 29315 ft | 532 kts | 54° |
| 2026-04-26 04:53 | 26.82390 | 128.50213 | 29562 ft | 534 kts | 54° |
| 2026-04-26 04:53 | 26.84704 | 128.53471 | 29856 ft | 536 kts | 54° |
| 2026-04-26 04:53 | 26.87024 | 128.56732 | 30177 ft | 535 kts | 54° |
| 2026-04-26 04:54 | 26.89341 | 128.59996 | 30422 ft | 536 kts | 54° |
| 2026-04-26 04:54 | 26.91762 | 128.63187 | 30632 ft | 540 kts | 47° |
| 2026-04-26 04:54 | 26.94552 | 128.66017 | 30835 ft | 542 kts | 39° |
| 2026-04-26 04:54 | 26.97660 | 128.68407 | 31106 ft | 542 kts | 29° |
| 2026-04-26 04:55 | 27.00971 | 128.70421 | 31408 ft | 541 kts | 27° |
| 2026-04-26 04:55 | 27.04307 | 128.72380 | 31656 ft | 542 kts | 27° |
| 2026-04-26 04:55 | 27.07659 | 128.74339 | 31860 ft | 544 kts | 27° |
| 2026-04-26 04:55 | 27.11015 | 128.76315 | 32114 ft | 545 kts | 27° |
| 2026-04-26 04:56 | 27.14364 | 128.78313 | 32394 ft | 544 kts | 28° |
| 2026-04-26 04:56 | 27.17699 | 128.80324 | 32665 ft | 544 kts | 28° |
| 2026-04-26 04:56 | 27.20976 | 128.82314 | 32893 ft | 545 kts | 28° |
| 2026-04-26 04:56 | 27.24309 | 128.84346 | 33094 ft | 547 kts | 29° |
| 2026-04-26 04:57 | 27.27668 | 128.86397 | 33238 ft | 550 kts | 29° |
| 2026-04-26 04:57 | 27.31028 | 128.88449 | 33458 ft | 550 kts | 29° |
| 2026-04-26 04:57 | 27.34380 | 128.90496 | 33888 ft | 543 kts | 30° |
| 2026-04-26 04:57 | 27.37667 | 128.92502 | 34500 ft | 533 kts | 29° |
| 2026-04-26 04:58 | 27.40913 | 128.94484 | 34879 ft | 529 kts | 29° |
| 2026-04-26 04:58 | 27.44144 | 128.96458 | 34957 ft | 532 kts | 29° |
| 2026-04-26 04:58 | 27.50695 | 129.00466 | 34979 ft | 540 kts | 29° |
| 2026-04-26 04:59 | 27.57332 | 129.04531 | 34975 ft | 545 kts | 29° |
| 2026-04-26 04:59 | 27.64011 | 129.08628 | 34975 ft | 547 kts | 29° |
| 2026-04-26 05:00 | 27.70704 | 129.12739 | 34940 ft | 547 kts | 29° |
| 2026-04-26 05:00 | 27.74016 | 129.14775 | 34954 ft | 536 kts | 29° |
| 2026-04-26 05:00 | 27.77255 | 129.16767 | 34944 ft | 525 kts | 29° |
| 2026-04-26 05:01 | 27.83662 | 129.20713 | 34972 ft | 528 kts | 30° |
| 2026-04-26 05:01 | 27.90158 | 129.24722 | 34981 ft | 536 kts | 30° |
| 2026-04-26 05:02 | 27.96725 | 129.28779 | 34976 ft | 540 kts | 30° |
| 2026-04-26 05:02 | 28.03296 | 129.32842 | 34962 ft | 543 kts | 30° |
| 2026-04-26 05:03 | 28.09922 | 129.36946 | 34971 ft | 539 kts | 28° |
| 2026-04-26 05:03 | 28.16424 | 129.40979 | 34964 ft | 528 kts | 28° |
| 2026-04-26 05:04 | 28.22920 | 129.45011 | 34982 ft | 531 kts | 29° |
| 2026-04-26 05:04 | 28.29417 | 129.49057 | 34960 ft | 533 kts | 29° |
| 2026-04-26 05:05 | 28.35895 | 129.53092 | 34955 ft | 536 kts | 29° |
| 2026-04-26 05:05 | 28.41887 | 129.57988 | 34925 ft | 527 kts | 57° |
| 2026-04-26 05:06 | 28.43887 | 129.61425 | 34941 ft | 519 kts | 69° |
| 2026-04-26 05:06 | 28.45185 | 129.65197 | 34932 ft | 507 kts | 84° |
| 2026-04-26 05:06 | 28.46144 | 129.73012 | 34937 ft | 499 kts | 92° |
| 2026-04-26 05:07 | 28.46863 | 129.80887 | 34929 ft | 502 kts | 91° |
| 2026-04-26 05:07 | 28.47669 | 129.88754 | 34925 ft | 499 kts | 91° |
| 2026-04-26 05:08 | 28.48510 | 129.96554 | 34924 ft | 497 kts | 91° |
| 2026-04-26 05:08 | 28.49341 | 130.04339 | 34914 ft | 496 kts | 91° |
| 2026-04-26 05:09 | 28.50415 | 130.12114 | 34930 ft | 506 kts | 80° |
| 2026-04-26 05:09 | 28.53295 | 130.19513 | 34943 ft | 521 kts | 60° |
| 2026-04-26 05:10 | 28.57474 | 130.26298 | 34953 ft | 525 kts | 57° |
| 2026-04-26 05:10 | 28.61718 | 130.33079 | 34955 ft | 527 kts | 58° |
| 2026-04-26 05:11 | 28.65870 | 130.39900 | 34957 ft | 528 kts | 58° |
| 2026-04-26 05:11 | 28.70031 | 130.46812 | 34956 ft | 530 kts | 58° |
| 2026-04-26 05:12 | 28.74205 | 130.53738 | 34952 ft | 531 kts | 58° |
| 2026-04-26 05:12 | 28.78382 | 130.60676 | 34945 ft | 531 kts | 58° |
| 2026-04-26 05:13 | 28.82552 | 130.67620 | 34947 ft | 531 kts | 58° |
| 2026-04-26 05:13 | 28.86714 | 130.74563 | 34953 ft | 530 kts | 58° |
| 2026-04-26 05:14 | 28.90873 | 130.81513 | 34944 ft | 530 kts | 58° |
| 2026-04-26 05:14 | 28.95022 | 130.88457 | 34935 ft | 529 kts | 58° |
| 2026-04-26 05:15 | 28.99158 | 130.95388 | 34971 ft | 527 kts | 59° |
| 2026-04-26 05:15 | 29.03276 | 131.02304 | 34942 ft | 526 kts | 59° |
| 2026-04-26 05:16 | 29.07378 | 131.09204 | 34935 ft | 524 kts | 59° |
| 2026-04-26 05:16 | 29.11460 | 131.16082 | 34922 ft | 522 kts | 59° |
| 2026-04-26 05:17 | 29.15523 | 131.22939 | 34926 ft | 520 kts | 59° |
| 2026-04-26 05:17 | 29.19572 | 131.29784 | 34934 ft | 519 kts | 59° |
| 2026-04-26 05:18 | 29.23606 | 131.36615 | 34922 ft | 518 kts | 59° |
| 2026-04-26 05:18 | 29.27634 | 131.43448 | 34947 ft | 518 kts | 59° |
| 2026-04-26 05:19 | 29.31666 | 131.50298 | 34940 ft | 519 kts | 59° |
| 2026-04-26 05:19 | 29.35701 | 131.57165 | 34920 ft | 520 kts | 59° |
| 2026-04-26 05:20 | 29.39742 | 131.64054 | 34961 ft | 521 kts | 59° |
| 2026-04-26 05:20 | 29.43105 | 131.69798 | 34947 ft | 523 kts | 59° |
| 2026-04-26 05:21 | 29.47163 | 131.76743 | 34949 ft | 525 kts | 59° |
| 2026-04-26 05:21 | 29.51226 | 131.83707 | 34940 ft | 525 kts | 59° |
| 2026-04-26 05:22 | 29.55298 | 131.90699 | 34951 ft | 527 kts | 59° |
| 2026-04-26 05:22 | 29.59371 | 131.97706 | 34951 ft | 528 kts | 59° |
| 2026-04-26 05:23 | 29.64106 | 132.05863 | 34946 ft | 528 kts | 59° |
| 2026-04-26 05:23 | 29.67700 | 132.11624 | 34948 ft | 531 kts | 53° |
| 2026-04-26 05:24 | 29.72407 | 132.18173 | 34952 ft | 532 kts | 51° |
| 2026-04-26 05:24 | 29.77151 | 132.24629 | 34938 ft | 531 kts | 51° |
| 2026-04-26 05:25 | 29.81874 | 132.31178 | 34946 ft | 531 kts | 52° |
| 2026-04-26 05:25 | 29.86555 | 132.37762 | 34943 ft | 531 kts | 52° |
| 2026-04-26 05:26 | 29.91222 | 132.44357 | 34932 ft | 531 kts | 52° |
| 2026-04-26 05:26 | 29.95888 | 132.50953 | 34936 ft | 531 kts | 52° |
| 2026-04-26 05:27 | 30.00552 | 132.57552 | 34934 ft | 531 kts | 52° |
| 2026-04-26 05:27 | 30.05217 | 132.64159 | 34921 ft | 530 kts | 52° |
| 2026-04-26 05:28 | 30.09871 | 132.70764 | 34943 ft | 531 kts | 52° |
| 2026-04-26 05:28 | 30.14525 | 132.77380 | 34934 ft | 531 kts | 52° |
| 2026-04-26 05:29 | 30.19181 | 132.84010 | 34951 ft | 531 kts | 53° |
| 2026-04-26 05:29 | 30.23837 | 132.90650 | 34937 ft | 532 kts | 53° |
| 2026-04-26 05:30 | 30.28498 | 132.97310 | 34932 ft | 533 kts | 53° |
| 2026-04-26 05:30 | 30.33157 | 133.03978 | 34932 ft | 533 kts | 53° |
| 2026-04-26 05:31 | 30.37814 | 133.10653 | 34930 ft | 533 kts | 53° |
| 2026-04-26 05:31 | 30.42474 | 133.17345 | 34929 ft | 534 kts | 53° |
| 2026-04-26 05:32 | 30.47135 | 133.24049 | 34915 ft | 534 kts | 52° |
| 2026-04-26 05:32 | 30.51790 | 133.30756 | 34929 ft | 534 kts | 52° |
| 2026-04-26 05:33 | 30.56440 | 133.37465 | 34931 ft | 533 kts | 52° |
| 2026-04-26 05:33 | 30.61083 | 133.44178 | 34918 ft | 534 kts | 52° |
| 2026-04-26 05:34 | 30.65720 | 133.50893 | 34932 ft | 533 kts | 52° |
| 2026-04-26 05:34 | 30.70360 | 133.57626 | 34934 ft | 534 kts | 52° |
| 2026-04-26 05:35 | 30.74971 | 133.64326 | 34921 ft | 535 kts | 53° |
| 2026-04-26 05:35 | 30.79649 | 133.71136 | 34934 ft | 535 kts | 53° |
| 2026-04-26 05:36 | 30.84254 | 133.77849 | 34958 ft | 536 kts | 53° |
| 2026-04-26 05:36 | 30.88913 | 133.84651 | 34927 ft | 537 kts | 53° |
| 2026-04-26 05:37 | 30.93570 | 133.91463 | 34941 ft | 538 kts | 53° |
| 2026-04-26 05:37 | 30.98230 | 133.98292 | 34947 ft | 539 kts | 53° |
| 2026-04-26 05:38 | 31.02890 | 134.05135 | 34934 ft | 539 kts | 53° |
| 2026-04-26 05:38 | 31.07543 | 134.11979 | 34938 ft | 538 kts | 53° |
| 2026-04-26 05:39 | 31.12184 | 134.18817 | 34945 ft | 538 kts | 53° |
| 2026-04-26 05:39 | 31.16822 | 134.25661 | 34946 ft | 537 kts | 53° |
| 2026-04-26 05:40 | 31.21440 | 134.32490 | 34967 ft | 535 kts | 53° |
| 2026-04-26 05:40 | 31.26051 | 134.39318 | 34949 ft | 534 kts | 54° |
| 2026-04-26 05:41 | 31.30641 | 134.46129 | 34945 ft | 533 kts | 53° |
| 2026-04-26 05:41 | 31.35222 | 134.52938 | 34961 ft | 532 kts | 54° |
| 2026-04-26 05:42 | 31.39779 | 134.59724 | 34950 ft | 531 kts | 54° |
| 2026-04-26 05:42 | 31.44349 | 134.66541 | 34956 ft | 531 kts | 53° |
| 2026-04-26 05:43 | 31.48902 | 134.73346 | 34979 ft | 532 kts | 54° |
| 2026-04-26 05:43 | 31.53477 | 134.80195 | 34976 ft | 533 kts | 54° |
| 2026-04-26 05:44 | 31.58051 | 134.87054 | 34995 ft | 535 kts | 54° |
| 2026-04-26 05:44 | 31.62651 | 134.93967 | 34980 ft | 537 kts | 54° |
| 2026-04-26 05:45 | 31.67253 | 135.00891 | 34963 ft | 539 kts | 53° |
| 2026-04-26 05:45 | 31.69768 | 135.04154 | 34958 ft | 541 kts | 40° |
| 2026-04-26 05:45 | 31.72814 | 135.06736 | 34987 ft | 538 kts | 26° |
| 2026-04-26 05:46 | 31.76174 | 135.08586 | 34973 ft | 532 kts | 13° |
| 2026-04-26 05:46 | 31.79728 | 135.09623 | 34986 ft | 523 kts | 3° |
| 2026-04-26 05:46 | 31.86875 | 135.11024 | 34989 ft | 525 kts | 3° |
| 2026-04-26 05:47 | 31.94095 | 135.12523 | 34984 ft | 529 kts | 4° |
| 2026-04-26 05:47 | 32.01351 | 135.14131 | 34990 ft | 532 kts | 4° |
| 2026-04-26 05:48 | 32.08632 | 135.15752 | 34995 ft | 533 kts | 4° |
| 2026-04-26 05:48 | 32.15934 | 135.17364 | 34996 ft | 534 kts | 4° |
| 2026-04-26 05:49 | 32.26897 | 135.19783 | 35001 ft | 535 kts | 4° |
| 2026-04-26 05:50 | 32.34206 | 135.21402 | 34997 ft | 534 kts | 4° |
| 2026-04-26 05:50 | 32.41518 | 135.23024 | 35017 ft | 534 kts | 3° |
| 2026-04-26 05:51 | 32.48806 | 135.24644 | 35008 ft | 533 kts | 3° |
| 2026-04-26 05:51 | 32.56087 | 135.26261 | 35013 ft | 532 kts | 3° |
| 2026-04-26 05:52 | 32.63366 | 135.27868 | 35021 ft | 531 kts | 2° |
| 2026-04-26 05:52 | 32.70628 | 135.29475 | 35011 ft | 530 kts | 2° |
| 2026-04-26 05:53 | 32.77871 | 135.31083 | 35013 ft | 529 kts | 2° |
| 2026-04-26 05:53 | 32.85117 | 135.32694 | 35018 ft | 530 kts | 2° |
| 2026-04-26 05:54 | 32.92358 | 135.34307 | 35019 ft | 529 kts | 2° |
| 2026-04-26 05:54 | 32.99592 | 135.35922 | 35016 ft | 529 kts | 2° |
| 2026-04-26 05:55 | 33.06817 | 135.37536 | 35030 ft | 526 kts | 2° |
| 2026-04-26 05:55 | 33.10319 | 135.38328 | 35007 ft | 512 kts | 1° |
| 2026-04-26 05:55 | 33.13817 | 135.39124 | 34999 ft | 498 kts | 1° |
| 2026-04-26 05:55 | 33.17128 | 135.39873 | 35010 ft | 484 kts | 0° |
| 2026-04-26 05:56 | 33.20433 | 135.40614 | 35008 ft | 470 kts | 0° |
| 2026-04-26 05:56 | 33.26820 | 135.42022 | 35057 ft | 474 kts | 360° |
| 2026-04-26 05:57 | 33.33387 | 135.43562 | 35043 ft | 493 kts | 7° |
| 2026-04-26 05:57 | 33.36665 | 135.44960 | 35041 ft | 508 kts | 18° |
| 2026-04-26 05:57 | 33.39800 | 135.46980 | 35037 ft | 516 kts | 30° |
| 2026-04-26 05:58 | 33.45560 | 135.52198 | 35041 ft | 520 kts | 35° |
| 2026-04-26 05:58 | 33.51248 | 135.57574 | 35037 ft | 522 kts | 34° |
| 2026-04-26 05:59 | 33.57003 | 135.62869 | 35032 ft | 521 kts | 33° |
| 2026-04-26 05:59 | 33.62772 | 135.68125 | 34979 ft | 518 kts | 33° |
| 2026-04-26 05:59 | 33.65642 | 135.70754 | 34394 ft | 520 kts | 34° |
| 2026-04-26 06:00 | 33.68547 | 135.73402 | 33593 ft | 529 kts | 34° |
| 2026-04-26 06:00 | 33.71502 | 135.76075 | 32728 ft | 537 kts | 33° |
| 2026-04-26 06:00 | 33.74515 | 135.78779 | 31985 ft | 542 kts | 33° |
| 2026-04-26 06:00 | 33.77523 | 135.81499 | 31498 ft | 540 kts | 34° |
| 2026-04-26 06:01 | 33.80498 | 135.84202 | 31168 ft | 533 kts | 34° |
| 2026-04-26 06:01 | 33.83441 | 135.86878 | 30823 ft | 528 kts | 33° |
| 2026-04-26 06:01 | 33.86366 | 135.89535 | 30384 ft | 525 kts | 33° |
| 2026-04-26 06:01 | 33.89265 | 135.92173 | 30016 ft | 520 kts | 33° |
| 2026-04-26 06:02 | 33.92140 | 135.94775 | 29751 ft | 514 kts | 33° |
| 2026-04-26 06:02 | 33.94974 | 135.97361 | 29340 ft | 509 kts | 33° |
| 2026-04-26 06:02 | 33.97829 | 135.99856 | 28817 ft | 506 kts | 32° |
| 2026-04-26 06:02 | 34.00643 | 136.02370 | 28424 ft | 500 kts | 33° |
| 2026-04-26 06:03 | 34.03374 | 136.04884 | 27969 ft | 489 kts | 33° |
| 2026-04-26 06:03 | 34.06057 | 136.07358 | 27336 ft | 483 kts | 33° |
| 2026-04-26 06:03 | 34.08734 | 136.09780 | 26777 ft | 477 kts | 32° |
| 2026-04-26 06:03 | 34.11303 | 136.12275 | 26228 ft | 470 kts | 34° |
| 2026-04-26 06:04 | 34.13901 | 136.14642 | 25934 ft | 468 kts | 32° |
| 2026-04-26 06:04 | 34.16512 | 136.16960 | 25777 ft | 461 kts | 32° |
| 2026-04-26 06:04 | 34.17302 | 136.17672 | 25722 ft | 457 kts | 32° |
| 2026-04-26 06:05 | 34.18305 | 136.18575 | 25546 ft | 453 kts | 32° |
| 2026-04-26 06:05 | 34.20816 | 136.20859 | 24873 ft | 450 kts | 32° |
| 2026-04-26 06:05 | 34.23305 | 136.23120 | 24292 ft | 444 kts | 32° |
| 2026-04-26 06:05 | 34.25745 | 136.25354 | 23819 ft | 434 kts | 31° |
| 2026-04-26 06:06 | 34.28185 | 136.27339 | 23711 ft | 414 kts | 31° |
| 2026-04-26 06:06 | 34.30480 | 136.29432 | 22927 ft | 416 kts | 34° |
| 2026-04-26 06:06 | 34.32754 | 136.31648 | 21985 ft | 420 kts | 34° |
| 2026-04-26 06:06 | 34.35031 | 136.33857 | 21334 ft | 418 kts | 34° |
| 2026-04-26 06:07 | 34.37356 | 136.35903 | 20798 ft | 409 kts | 32° |
| 2026-04-26 06:07 | 34.39629 | 136.37929 | 20200 ft | 404 kts | 34° |
| 2026-04-26 06:07 | 34.41847 | 136.39992 | 19544 ft | 400 kts | 34° |
| 2026-04-26 06:07 | 34.44180 | 136.41732 | 19015 ft | 390 kts | 20° |
| 2026-04-26 06:08 | 34.46751 | 136.42703 | 18566 ft | 384 kts | 6° |
| 2026-04-26 06:08 | 34.49368 | 136.43173 | 18261 ft | 377 kts | 3° |
| 2026-04-26 06:08 | 34.51960 | 136.43532 | 17957 ft | 372 kts | 2° |
| 2026-04-26 06:08 | 34.54516 | 136.43857 | 17593 ft | 368 kts | 2° |
| 2026-04-26 06:09 | 34.57061 | 136.44169 | 17197 ft | 366 kts | 2° |
| 2026-04-26 06:09 | 34.59588 | 136.44470 | 16814 ft | 364 kts | 2° |
| 2026-04-26 06:09 | 34.62103 | 136.44762 | 16389 ft | 363 kts | 2° |
| 2026-04-26 06:09 | 34.64609 | 136.45044 | 15995 ft | 361 kts | 2° |
| 2026-04-26 06:10 | 34.67104 | 136.45314 | 15611 ft | 359 kts | 2° |
| 2026-04-26 06:10 | 34.68748 | 136.45404 | 15353 ft | 356 kts | 356° |
| 2026-04-26 06:10 | 34.71212 | 136.45252 | 14979 ft | 353 kts | 353° |
| 2026-04-26 06:10 | 34.73654 | 136.45017 | 14620 ft | 351 kts | 352° |
| 2026-04-26 06:11 | 34.76083 | 136.44761 | 14255 ft | 350 kts | 352° |
| 2026-04-26 06:11 | 34.78503 | 136.44497 | 13906 ft | 348 kts | 352° |
| 2026-04-26 06:11 | 34.80906 | 136.44227 | 13542 ft | 346 kts | 352° |
| 2026-04-26 06:11 | 34.83294 | 136.43957 | 13172 ft | 343 kts | 352° |
| 2026-04-26 06:12 | 34.85680 | 136.43701 | 12700 ft | 345 kts | 352° |
| 2026-04-26 06:12 | 34.88062 | 136.43449 | 12372 ft | 341 kts | 352° |
| 2026-04-26 06:12 | 34.90390 | 136.43207 | 12283 ft | 330 kts | 352° |
| 2026-04-26 06:12 | 34.92647 | 136.42986 | 12190 ft | 321 kts | 353° |
| 2026-04-26 06:13 | 34.94828 | 136.42761 | 12155 ft | 309 kts | 352° |
| 2026-04-26 06:13 | 34.96934 | 136.42533 | 12021 ft | 299 kts | 352° |
| 2026-04-26 06:13 | 34.98992 | 136.42300 | 11574 ft | 296 kts | 352° |
| 2026-04-26 06:13 | 35.01041 | 136.42056 | 11109 ft | 295 kts | 352° |
| 2026-04-26 06:14 | 35.03071 | 136.41823 | 10698 ft | 291 kts | 352° |
| 2026-04-26 06:14 | 35.05082 | 136.41629 | 10263 ft | 289 kts | 358° |
| 2026-04-26 06:14 | 35.07054 | 136.42101 | 9802 ft | 291 kts | 18° |
| 2026-04-26 06:14 | 35.08928 | 136.43019 | 9315 ft | 291 kts | 20° |
| 2026-04-26 06:15 | 35.10782 | 136.44001 | 8903 ft | 288 kts | 23° |
| 2026-04-26 06:15 | 35.12616 | 136.44981 | 8561 ft | 289 kts | 22° |
| 2026-04-26 06:15 | 35.14449 | 136.45959 | 8329 ft | 286 kts | 21° |
| 2026-04-26 06:15 | 35.16266 | 136.46923 | 8169 ft | 284 kts | 21° |
| 2026-04-26 06:16 | 35.18067 | 136.47855 | 8030 ft | 278 kts | 22° |
| 2026-04-26 06:16 | 35.19661 | 136.49186 | 7712 ft | 280 kts | 46° |
| 2026-04-26 06:16 | 35.20897 | 136.51028 | 7495 ft | 277 kts | 51° |
| 2026-04-26 06:16 | 35.22040 | 136.52905 | 7244 ft | 275 kts | 60° |
| 2026-04-26 06:17 | 35.22594 | 136.55120 | 6963 ft | 274 kts | 86° |
| 2026-04-26 06:17 | 35.22625 | 136.57459 | 6699 ft | 273 kts | 92° |
| 2026-04-26 06:17 | 35.22605 | 136.59745 | 6573 ft | 266 kts | 91° |
| 2026-04-26 06:17 | 35.22579 | 136.61978 | 6471 ft | 259 kts | 92° |
| 2026-04-26 06:18 | 35.22340 | 136.64127 | 6442 ft | 254 kts | 114° |
| 2026-04-26 06:18 | 35.21392 | 136.65967 | 6175 ft | 264 kts | 129° |
| 2026-04-26 06:18 | 35.20192 | 136.67700 | 5843 ft | 268 kts | 131° |
| 2026-04-26 06:18 | 35.18965 | 136.69404 | 5532 ft | 264 kts | 131° |
| 2026-04-26 06:19 | 35.17762 | 136.71050 | 5262 ft | 254 kts | 131° |
| 2026-04-26 06:19 | 35.16572 | 136.72596 | 4979 ft | 246 kts | 139° |
| 2026-04-26 06:19 | 35.15067 | 136.73425 | 4698 ft | 241 kts | 167° |
| 2026-04-26 06:19 | 35.13450 | 136.73798 | 4450 ft | 232 kts | 165° |
| 2026-04-26 06:20 | 35.11842 | 136.74226 | 3904 ft | 236 kts | 166° |
| 2026-04-26 06:20 | 35.10269 | 136.74632 | 3763 ft | 227 kts | 166° |
| 2026-04-26 06:20 | 35.08743 | 136.75014 | 3642 ft | 219 kts | 166° |
| 2026-04-26 06:20 | 35.07293 | 136.75369 | 3550 ft | 206 kts | 167° |
| 2026-04-26 06:21 | 35.05939 | 136.75698 | 3512 ft | 189 kts | 166° |
| 2026-04-26 06:21 | 35.04705 | 136.75995 | 3485 ft | 174 kts | 166° |
| 2026-04-26 06:21 | 35.03519 | 136.76282 | 3520 ft | 174 kts | 165° |
| 2026-04-26 06:21 | 35.02319 | 136.76576 | 3294 ft | 174 kts | 166° |
| 2026-04-26 06:22 | 35.01136 | 136.76860 | 3033 ft | 172 kts | 167° |
| 2026-04-26 06:22 | 34.99989 | 136.77137 | 2780 ft | 163 kts | 167° |
| 2026-04-26 06:22 | 34.98914 | 136.77395 | 2553 ft | 151 kts | 168° |
| 2026-04-26 06:22 | 34.97904 | 136.77638 | 2346 ft | 150 kts | 167° |
| 2026-04-26 06:23 | 34.96891 | 136.77879 | 2111 ft | 148 kts | 166° |
| 2026-04-26 06:23 | 34.95886 | 136.78122 | 1892 ft | 146 kts | 165° |
| 2026-04-26 06:23 | 34.94899 | 136.78359 | 1680 ft | 143 kts | 166° |
| 2026-04-26 06:23 | 34.93929 | 136.78591 | 1471 ft | 142 kts | 167° |
| 2026-04-26 06:24 | 34.92949 | 136.78832 | 1278 ft | 144 kts | 167° |
| 2026-04-26 06:24 | 34.91975 | 136.79063 | 1064 ft | 141 kts | 167° |
| 2026-04-26 06:24 | 34.91020 | 136.79292 | 879 ft | 140 kts | 167° |
| 2026-04-26 06:24 | 34.90050 | 136.79522 | 642 ft | 143 kts | 166° |
| 2026-04-26 06:25 | 34.89080 | 136.79755 | 432 ft | 142 kts | 164° |
| 2026-04-26 06:25 | 34.88115 | 136.79991 | 240 ft | 141 kts | 163° |
| 2026-04-26 06:25 | 34.87141 | 136.80225 | 46 ft | 143 kts | 165° |
| 2026-04-26 06:25 | 34.86243 | 136.80444 | 26 ft | 113 kts | 170° |
| 2026-04-26 06:26 | 34.85685 | 136.80575 | 25 ft | 51 kts | 168° |
| 2026-04-26 06:26 | 34.85510 | 136.80672 | 24 ft | 17 kts | 136° |
| 2026-04-26 06:26 | 34.85447 | 136.80741 | 26 ft | 8 kts | 138° |
| 2026-04-26 06:26 | 34.85406 | 136.80791 | 28 ft | 8 kts | 134° |
| 2026-04-26 06:27 | 34.85402 | 136.80853 | 27 ft | 8 kts | 62° |
| 2026-04-26 06:27 | 34.85447 | 136.80877 | 26 ft | 8 kts | 349° |
| 2026-04-26 06:27 | 34.85499 | 136.80865 | 26 ft | 8 kts | 349° |
| 2026-04-26 06:27 | 34.85551 | 136.80853 | 26 ft | 8 kts | 348° |
| 2026-04-26 06:28 | 34.85611 | 136.80838 | 26 ft | 10 kts | 348° |
| 2026-04-26 06:28 | 34.85686 | 136.80820 | 26 ft | 12 kts | 348° |
| 2026-04-26 06:28 | 34.85774 | 136.80798 | 26 ft | 14 kts | 348° |
| 2026-04-26 06:28 | 34.85876 | 136.80773 | 26 ft | 16 kts | 348° |
| 2026-04-26 06:29 | 34.85984 | 136.80748 | 27 ft | 15 kts | 354° |
| 2026-04-26 06:29 | 34.86034 | 136.80827 | 27 ft | 15 kts | 118° |
| 2026-04-26 06:29 | 34.85982 | 136.80919 | 27 ft | 11 kts | 80° |
| 2026-04-26 06:29 | 34.85996 | 136.81007 | 27 ft | 10 kts | 76° |
| 2026-04-26 06:30 | 34.86011 | 136.81083 | 27 ft | 5 kts | 77° |
| 2026-04-26 06:30 | 34.86000 | 136.81122 | 27 ft | 5 kts | 153° |
| 2026-04-26 06:30 | 34.85961 | 136.81130 | 27 ft | 6 kts | 170° |
| 2026-04-26 06:30 | 34.85928 | 136.81137 | 27 ft | 2 kts | 169° |
| 2026-04-26 06:31 | 34.85921 | 136.81139 | 27 ft | 0 kts | 168° |